Time;durP1;ratioP1;P1;durP2;ratioP2;P2;SDS_P1;SDS_P2;PMS_P1;PMS_P2;Temp;Humidity;BMP_temperature;BMP_pressure;BME280_temperature;BME280_humidity;BME280_pressure;Samples;Min_cycle;Max_cycle;Signal;HPM_P1;HPM_P2
2022/09/14 00:00:10;;;;;;;14.35;10.73;;;;;;;19.90;74.14;99787.41;4177008;28;20648;-63
2022/09/14 00:02:15;;;;;;;13.93;12.32;;;;;;;19.82;74.29;99795.63;4166443;28;20041;-63
2022/09/14 00:04:20;;;;;;;18.35;11.95;;;;;;;19.71;74.40;99798.56;4173628;28;20045;-63
2022/09/14 00:06:24;;;;;;;15.77;11.05;;;;;;;19.71;74.00;99786.25;4177764;28;20108;-63
2022/09/14 00:08:26;;;;;;;16.85;11.35;;;;;;;19.74;74.31;99792.34;4178013;28;20406;-63
2022/09/14 00:10:29;;;;;;;18.30;12.43;;;;;;;19.88;74.00;99772.50;4182052;28;20120;-62
2022/09/14 00:12:32;;;;;;;16.33;12.35;;;;;;;19.95;73.82;99757.31;4177363;28;20442;-62
2022/09/14 00:14:35;;;;;;;19.65;10.52;;;;;;;19.92;73.88;99762.72;4177831;28;20045;-62
2022/09/14 00:16:40;;;;;;;13.20;10.48;;;;;;;19.92;73.97;99762.72;4181699;28;20045;-62
2022/09/14 00:18:44;;;;;;;21.60;13.15;;;;;;;19.90;74.35;99764.53;4166716;28;20047;-62
2022/09/14 00:20:48;;;;;;;20.40;15.75;;;;;;;19.87;74.76;99756.72;4168792;28;20042;-62
2022/09/14 00:22:51;;;;;;;17.05;14.00;;;;;;;19.94;74.53;99738.91;4168410;28;20042;-62
2022/09/14 00:24:54;;;;;;;19.95;13.70;;;;;;;19.91;74.41;99729.31;4180253;28;20047;-62
2022/09/14 00:26:57;;;;;;;19.35;12.80;;;;;;;19.92;73.93;99730.19;4182677;28;20067;-62
2022/09/14 00:29:03;;;;;;;16.03;12.73;;;;;;;19.85;74.24;99717.22;4171286;28;20446;-63
2022/09/14 00:31:07;;;;;;;17.42;12.50;;;;;;;19.86;74.05;99716.31;4172092;28;20037;-62
2022/09/14 00:33:10;;;;;;;20.42;13.70;;;;;;;19.90;74.41;99705.66;4181993;28;20457;-62
2022/09/14 00:35:13;;;;;;;16.67;13.02;;;;;;;19.89;73.70;99691.59;4170661;28;20132;-62
2022/09/14 00:37:17;;;;;;;17.10;12.93;;;;;;;19.83;73.99;99689.16;4176912;28;20037;-62
2022/09/14 00:39:23;;;;;;;15.88;11.35;;;;;;;19.77;74.65;99677.06;4180173;28;20037;-62
2022/09/14 00:41:28;;;;;;;17.23;12.05;;;;;;;19.69;74.91;99674.69;4177647;28;20453;-62
2022/09/14 00:43:31;;;;;;;14.90;12.02;;;;;;;19.68;75.78;99664.19;4182082;28;20037;-62
2022/09/14 00:45:34;;;;;;;17.35;12.48;;;;;;;19.66;76.23;99658.97;4181586;28;20094;-62
2022/09/14 00:47:37;;;;;;;16.30;11.85;;;;;;;19.69;76.04;99661.50;4181192;28;20473;-62
2022/09/14 00:49:42;;;;;;;16.33;12.50;;;;;;;19.74;76.23;99661.31;4166219;28;20515;-62
2022/09/14 00:51:49;;;;;;;23.10;13.48;;;;;;;19.75;76.29;99660.41;4175157;28;20048;-62
2022/09/14 00:53:54;;;;;;;20.85;14.90;;;;;;;19.78;76.00;99656.81;4174061;28;20083;-62
2022/09/14 00:55:57;;;;;;;16.17;13.35;;;;;;;19.74;76.32;99655.19;4163955;28;20041;-62
2022/09/14 00:58:01;;;;;;;21.48;14.30;;;;;;;19.73;76.22;99659.63;4179954;28;20041;-62
2022/09/14 01:00:08;;;;;;;14.73;12.13;;;;;;;19.66;76.75;99663.41;4175645;28;20544;-62
2022/09/14 01:02:14;;;;;;;16.60;11.68;;;;;;;19.59;77.36;99661.88;4180265;28;20033;-62
2022/09/14 01:04:17;;;;;;;17.15;13.93;;;;;;;19.58;77.42;99660.16;4180877;28;20037;-62
2022/09/14 01:06:29;;;;;;;22.40;14.35;;;;;;;19.59;77.71;99661.88;4179905;28;20048;-62
2022/09/14 01:08:44;;;;;;;18.92;14.07;;;;;;;19.58;77.56;99655.78;4181292;28;20395;-62
2022/09/14 01:11:08;;;;;;;15.45;10.60;;;;;;;19.53;77.88;99657.69;4180194;28;20149;-62
2022/09/14 01:13:22;;;;;;;16.58;12.63;;;;;;;19.50;78.00;99653.38;4181926;28;20056;-62
2022/09/14 01:15:31;;;;;;;16.65;10.90;;;;;;;19.53;77.45;99648.00;4180226;28;20075;-63
2022/09/14 01:17:41;;;;;;;18.48;11.32;;;;;;;19.62;76.95;99633.63;4181828;28;20079;-63
2022/09/14 01:20:15;;;;;;;14.10;9.07;;;;;;;19.62;76.27;99640.69;4181189;28;20048;-63
2022/09/14 01:22:23;;;;;;;15.68;9.55;;;;;;;19.62;75.84;99644.16;4167057;28;20030;-63
2022/09/14 01:24:35;;;;;;;11.57;8.73;;;;;;;19.59;76.42;99640.81;4172622;28;20058;-63
2022/09/14 01:27:15;;;;;;;11.98;7.13;;;;;;;19.60;76.21;99653.91;4173661;28;20041;-63
2022/09/14 01:29:24;;;;;;;14.57;8.32;;;;;;;19.65;75.15;99661.66;4177034;28;20063;-62
2022/09/14 01:31:30;;;;;;;14.73;7.82;;;;;;;19.59;75.17;99665.38;4180275;28;20037;-63
2022/09/14 01:33:39;;;;;;;12.30;8.40;;;;;;;19.57;75.66;99666.38;4164894;28;20132;-63
2022/09/14 01:35:47;;;;;;;13.40;9.55;;;;;;;19.61;75.42;99667.97;4168020;28;20048;-62
2022/09/14 01:37:55;;;;;;;16.80;9.68;;;;;;;19.55;75.96;99655.84;4180301;28;20048;-63
2022/09/14 01:40:04;;;;;;;15.38;9.50;;;;;;;19.54;76.13;99668.19;4167978;28;20443;-62
2022/09/14 01:42:09;;;;;;;17.88;9.02;;;;;;;19.46;76.19;99672.84;4181365;28;20056;-62
2022/09/14 01:44:17;;;;;;;15.23;8.68;;;;;;;19.44;76.19;99668.56;4180382;28;20073;-62
2022/09/14 01:46:24;;;;;;;11.73;7.82;;;;;;;19.39;77.03;99671.38;4180012;28;20139;-62
2022/09/14 01:48:45;;;;;;;11.98;8.27;;;;;;;19.48;76.00;99668.41;4164842;28;20072;-62
2022/09/14 01:50:51;;;;;;;11.85;7.72;;;;;;;19.46;76.32;99672.84;4177959;28;20033;-63
2022/09/14 01:52:58;;;;;;;16.23;10.25;;;;;;;19.43;76.57;99675.59;4178802;28;20453;-62
2022/09/14 01:55:06;;;;;;;14.88;9.15;;;;;;;19.38;76.76;99669.66;4174985;28;20538;-63
2022/09/14 01:57:15;;;;;;;15.25;11.75;;;;;;;19.34;77.38;99673.28;4180655;28;20045;-63
2022/09/14 01:59:23;;;;;;;15.63;10.07;;;;;;;19.30;76.84;99687.50;4180340;28;20041;-63
2022/09/14 02:01:33;;;;;;;10.57;6.68;;;;;;;19.21;77.60;99690.44;4179322;28;20571;-63
2022/09/14 02:03:41;;;;;;;14.45;10.27;;;;;;;19.23;77.50;99680.69;4180091;28;20036;-63
2022/09/14 02:05:50;;;;;;;15.90;9.50;;;;;;;19.19;77.42;99683.44;4181121;28;20132;-63
2022/09/14 02:07:54;;;;;;;14.95;10.60;;;;;;;19.27;77.19;99679.69;4165231;28;20037;-63
2022/09/14 02:09:58;;;;;;;15.77;9.85;;;;;;;19.22;76.99;99674.59;4170159;28;20106;-63
2022/09/14 02:12:01;;;;;;;12.75;9.10;;;;;;;19.18;77.18;99678.22;4180978;28;20103;-63
2022/09/14 02:14:04;;;;;;;16.30;10.00;;;;;;;19.16;77.58;99680.91;4178659;28;20494;-63
2022/09/14 02:16:09;;;;;;;8.52;6.70;;;;;;;19.11;77.91;99690.72;4180893;28;20045;-63
2022/09/14 02:18:12;;;;;;;11.57;7.88;;;;;;;19.06;78.78;99694.47;4176598;28;20131;-63
2022/09/14 02:20:21;;;;;;;12.45;8.02;;;;;;;19.07;78.76;99698.78;4180612;28;20574;-63
2022/09/14 02:22:27;;;;;;;11.45;8.40;;;;;;;19.09;78.79;99699.63;4163053;28;20046;-63
2022/09/14 02:24:30;;;;;;;14.82;8.80;;;;;;;19.10;79.41;99702.22;4167596;28;20045;-63
2022/09/14 02:26:33;;;;;;;12.00;8.27;;;;;;;19.10;79.77;99691.66;4170047;28;20110;-63
2022/09/14 02:28:36;;;;;;;12.80;8.30;;;;;;;19.10;79.50;99683.78;4180519;28;20037;-62
2022/09/14 02:30:49;;;;;;;12.98;8.45;;;;;;;19.14;79.64;99671.34;4178821;28;20041;-63
2022/09/14 02:33:07;;;;;;;11.43;7.78;;;;;;;19.14;79.91;99661.69;4180806;28;20466;-63
2022/09/14 02:35:17;;;;;;;15.70;10.30;;;;;;;19.13;79.89;99652.03;4164347;28;20483;-63
2022/09/14 02:37:29;;;;;;;14.60;9.43;;;;;;;19.17;79.59;99648.41;4169765;28;20083;-62
2022/09/14 02:39:40;;;;;;;13.70;9.65;;;;;;;19.21;79.37;99645.66;4178403;28;20052;-63
2022/09/14 02:41:50;;;;;;;16.50;10.13;;;;;;;19.25;79.25;99648.13;4168704;28;20041;-64
2022/09/14 02:43:59;;;;;;;19.00;10.93;;;;;;;19.27;78.84;99629.63;4171817;28;20107;-63
2022/09/14 02:46:13;;;;;;;15.30;10.23;;;;;;;19.25;78.95;99631.47;4180773;28;20041;-64
2022/09/14 02:48:29;;;;;;;11.80;8.57;;;;;;;19.22;78.93;99628.94;4180100;28;20406;-63
2022/09/14 02:50:38;;;;;;;14.93;9.57;;;;;;;19.23;79.09;99617.47;4170901;28;20053;-63
2022/09/14 02:52:48;;;;;;;14.27;11.18;;;;;;;19.34;78.74;99607.41;4163013;28;20634;-63
2022/09/14 02:54:57;;;;;;;18.52;10.70;;;;;;;19.34;78.32;99596.88;4159346;28;20051;-63
2022/09/14 02:57:05;;;;;;;14.75;9.48;;;;;;;19.19;78.93;99596.50;4178559;28;20099;-63
2022/09/14 02:59:13;;;;;;;14.80;9.05;;;;;;;19.11;79.75;99587.13;4180561;28;20080;-63
2022/09/14 03:01:19;;;;;;;16.75;11.18;;;;;;;19.21;79.37;99577.13;4178457;28;20033;-63
2022/09/14 03:03:23;;;;;;;16.25;10.20;;;;;;;19.18;78.88;99576.31;4161223;28;20038;-63
2022/09/14 03:05:26;;;;;;;15.32;10.38;;;;;;;19.02;79.21;99581.25;4179750;28;20158;-63
2022/09/14 03:07:29;;;;;;;9.68;7.00;;;;;;;19.02;79.15;99593.59;4180456;28;20037;-63
2022/09/14 03:09:32;;;;;;;11.82;8.82;;;;;;;18.96;79.34;99588.53;4162228;28;20049;-63
2022/09/14 03:11:35;;;;;;;15.57;9.20;;;;;;;19.05;79.07;99577.66;4178402;28;20037;-63
2022/09/14 03:13:38;;;;;;;13.35;9.20;;;;;;;19.10;79.00;99580.13;4172423;28;20375;-62
2022/09/14 03:15:41;;;;;;;9.18;6.60;;;;;;;19.04;78.95;99575.97;4178642;28;20056;-63
2022/09/14 03:17:47;;;;;;;12.10;8.73;;;;;;;19.02;79.62;99578.63;4180164;28;20040;-62
2022/09/14 03:19:51;;;;;;;16.25;8.05;;;;;;;19.00;79.53;99569.09;4172981;28;20530;-63
2022/09/14 03:21:54;;;;;;;13.35;9.23;;;;;;;18.99;79.75;99556.81;4180413;28;20106;-63
2022/09/14 03:23:57;;;;;;;12.07;8.88;;;;;;;18.99;79.54;99556.81;4167130;28;20507;-62
2022/09/14 03:26:00;;;;;;;14.98;8.13;;;;;;;18.98;79.81;99555.09;4163896;28;20514;-62
2022/09/14 03:28:03;;;;;;;12.23;7.88;;;;;;;18.98;79.32;99557.72;4178669;28;20605;-62
2022/09/14 03:30:07;;;;;;;14.32;7.88;;;;;;;18.93;79.89;99562.31;4165726;28;20060;-63
2022/09/14 03:32:11;;;;;;;17.90;8.07;;;;;;;18.82;80.63;99579.31;4175118;28;20025;-62
2022/09/14 03:34:14;;;;;;;11.00;7.60;;;;;;;18.77;80.80;99589.13;4175880;28;20143;-62
2022/09/14 03:36:20;;;;;;;11.18;7.85;;;;;;;18.82;81.26;99581.06;4178016;28;20037;-62
2022/09/14 03:38:23;;;;;;;13.98;8.93;;;;;;;18.86;81.16;99572.19;4157541;28;20132;-62
2022/09/14 03:40:26;;;;;;;14.63;8.95;;;;;;;18.91;81.22;99586.06;4168138;28;20127;-62
2022/09/14 03:42:29;;;;;;;14.13;8.57;;;;;;;18.94;80.97;99574.53;4173665;28;20039;-63
2022/09/14 03:44:32;;;;;;;9.82;7.13;;;;;;;18.96;80.86;99578.00;4179686;28;20481;-63
2022/09/14 03:46:35;;;;;;;14.02;8.93;;;;;;;19.00;80.63;99569.94;4174739;28;20030;-62
2022/09/14 03:48:38;;;;;;;14.70;8.10;;;;;;;19.02;80.57;99562.81;4173029;28;20098;-63
2022/09/14 03:50:41;;;;;;;11.90;7.13;;;;;;;19.02;80.58;99562.81;4168057;28;20033;-62
2022/09/14 03:52:45;;;;;;;9.93;6.63;;;;;;;19.01;81.04;99569.03;4175353;28;20445;-62
2022/09/14 03:54:48;;;;;;;9.98;6.80;;;;;;;18.93;80.92;99578.97;4172712;28;20072;-62
2022/09/14 03:56:52;;;;;;;13.80;9.02;;;;;;;18.88;81.45;99593.19;4176498;28;20042;-63
2022/09/14 03:58:55;;;;;;;14.98;9.98;;;;;;;18.87;81.51;99588.88;4177929;28;20045;-62
2022/09/14 04:01:03;;;;;;;14.52;9.65;;;;;;;18.92;81.45;99581.66;4169556;28;20079;-62
2022/09/14 04:03:06;;;;;;;13.90;9.52;;;;;;;18.95;81.82;99576.28;4177657;28;20037;-63
2022/09/14 04:05:09;;;;;;;13.45;10.38;;;;;;;19.09;80.55;99567.91;4172432;28;20045;-62
2022/09/14 04:07:12;;;;;;;17.42;11.73;;;;;;;19.18;79.92;99568.41;4175662;28;20124;-62
2022/09/14 04:09:18;;;;;;;12.13;8.90;;;;;;;19.09;80.06;99573.16;4174056;28;20041;-62
2022/09/14 04:11:22;;;;;;;15.50;9.07;;;;;;;19.02;80.41;99562.81;4182295;28;20553;-62
2022/09/14 04:13:25;;;;;;;;;;;;;;;18.91;81.02;99567.63;4176559;28;20033;-62
2022/09/14 04:15:28;;;;;;;16.73;9.90;;;;;;;18.96;81.19;99567.47;4175734;28;19921;-62
2022/09/14 04:17:31;;;;;;;18.23;11.93;;;;;;;18.99;81.04;99556.81;4169646;28;20517;-62
2022/09/14 04:19:36;;;;;;;11.10;8.88;;;;;;;18.96;81.23;99564.84;4174885;28;20514;-63
2022/09/14 04:21:39;;;;;;;15.77;10.30;;;;;;;18.86;81.82;99574.81;4178246;28;20044;-62
2022/09/14 04:23:42;;;;;;;14.35;10.35;;;;;;;18.88;82.06;99574.75;4169222;28;20052;-63
2022/09/14 04:26:12;;;;;;;17.75;12.70;;;;;;;18.81;82.10;99574.94;4172848;28;20118;-62
2022/09/14 04:28:15;;;;;;;14.98;12.38;;;;;;;18.77;82.25;99578.59;4169294;28;20033;-62
2022/09/14 04:30:22;;;;;;;20.65;14.25;;;;;;;18.68;82.90;99568.38;4179285;28;20495;-63
2022/09/14 04:32:25;;;;;;;24.88;19.25;;;;;;;18.74;82.22;99567.31;4181144;28;20110;-62
2022/09/14 04:34:37;;;;;;;22.48;16.63;;;;;;;18.78;82.31;99567.16;4177261;28;20037;-62
2022/09/14 04:36:39;;;;;;;16.83;12.18;;;;;;;18.80;82.44;99562.69;4175482;28;20041;-65
2022/09/14 04:38:43;;;;;;;17.73;14.30;;;;;;;18.87;82.24;99557.25;4182381;28;20036;-63
2022/09/14 04:40:46;;;;;;;19.15;14.90;;;;;;;18.89;82.27;99551.00;4181172;28;20124;-63
2022/09/14 04:42:50;;;;;;;21.83;17.67;;;;;;;18.95;81.88;99549.94;4181188;28;20049;-63
2022/09/14 04:44:53;;;;;;;21.92;16.25;;;;;;;18.94;81.65;99543.81;4160086;28;20099;-63
2022/09/14 04:46:56;;;;;;;25.55;17.50;;;;;;;18.96;81.47;99551.66;4180310;28;20101;-63
2022/09/14 04:48:59;;;;;;;25.17;18.15;;;;;;;18.98;81.64;99548.06;4182157;28;20095;-63
2022/09/14 04:51:03;;;;;;;21.63;17.77;;;;;;;19.00;81.29;99553.28;4175744;28;20037;-63
2022/09/14 04:53:05;;;;;;;17.65;13.70;;;;;;;18.95;81.94;99558.72;4176034;28;20475;-63
2022/09/14 04:55:09;;;;;;;18.83;15.75;;;;;;;18.94;81.72;99562.25;4181801;28;20458;-63
2022/09/14 04:57:11;;;;;;;28.80;19.60;;;;;;;18.96;81.51;99567.47;4175401;28;20028;-63
2022/09/14 04:59:18;;;;;;;22.88;18.08;;;;;;;18.98;81.84;99568.25;4177986;28;20565;-64
2022/09/14 05:01:24;;;;;;;17.48;14.70;;;;;;;18.95;82.00;99568.38;4173357;28;20557;-63
2022/09/14 05:03:27;;;;;;;31.45;21.33;;;;;;;18.83;81.81;99574.88;4178024;28;20083;-63
2022/09/14 05:05:30;;;;;;;23.80;18.90;;;;;;;18.91;81.69;99572.91;4182039;28;20454;-63
2022/09/14 05:07:32;;;;;;;27.52;21.45;;;;;;;18.95;81.31;99573.63;4178570;28;20041;-63
2022/09/14 05:09:37;;;;;;;23.02;17.48;;;;;;;18.88;81.76;99582.66;4164276;28;20049;-63
2022/09/14 05:11:40;;;;;;;20.60;16.65;;;;;;;18.78;81.95;99585.59;4147880;28;20507;-63
2022/09/14 05:13:43;;;;;;;24.13;19.27;;;;;;;18.72;82.38;99596.31;4147229;28;20084;-63
2022/09/14 05:15:53;;;;;;;23.45;19.60;;;;;;;18.73;82.66;99584.00;4175392;28;20124;-62
2022/09/14 05:17:56;;;;;;;21.75;17.25;;;;;;;18.72;82.83;99575.25;4181532;28;20045;-63
2022/09/14 05:19:58;;;;;;;28.45;20.75;;;;;;;18.73;82.62;99576.97;4181318;28;20041;-63
2022/09/14 05:22:01;;;;;;;32.45;20.27;;;;;;;18.78;82.54;99568.94;4177590;28;20036;-63
2022/09/14 05:24:06;;;;;;;30.00;23.42;;;;;;;18.90;81.91;99572.94;4181107;28;20044;-63
2022/09/14 05:26:10;;;;;;;25.02;18.80;;;;;;;18.96;81.17;99567.47;4166553;28;20045;-63
2022/09/14 05:28:12;;;;;;;25.65;19.90;;;;;;;18.95;81.38;99565.72;4165108;28;20048;-63
2022/09/14 05:30:15;;;;;;;24.10;18.05;;;;;;;18.94;81.63;99564.00;4176807;28;20076;-62
2022/09/14 05:32:20;;;;;;;25.55;17.27;;;;;;;18.95;81.94;99563.97;4175093;28;20048;-62
2022/09/14 05:34:22;;;;;;;24.75;17.05;;;;;;;18.90;81.89;99573.81;4179889;28;20079;-63
2022/09/14 05:36:26;;;;;;;27.13;20.73;;;;;;;18.82;82.34;99581.94;4181484;28;20037;-63
2022/09/14 05:38:29;;;;;;;19.07;15.97;;;;;;;18.78;82.70;99582.09;4180285;28;20037;-63
2022/09/14 05:40:32;;;;;;;26.17;20.30;;;;;;;18.80;82.53;99581.13;4180007;28;20071;-63
2022/09/14 05:42:35;;;;;;;22.90;18.00;;;;;;;18.82;82.23;99574.03;4180703;28;20223;-63
2022/09/14 05:44:38;;;;;;;16.98;13.70;;;;;;;18.80;81.87;99573.22;4177028;28;20587;-63
2022/09/14 05:46:41;;;;;;;28.35;19.38;;;;;;;18.83;82.33;99573.09;4178594;28;20479;-62
2022/09/14 05:48:45;;;;;;;17.50;13.88;;;;;;;18.86;82.09;99571.31;4176505;28;20043;-63
2022/09/14 05:50:48;;;;;;;18.20;13.02;;;;;;;18.87;81.82;99567.78;4180912;28;20094;-63
2022/09/14 05:52:51;;;;;;;24.77;18.25;;;;;;;18.93;81.18;99554.41;4173750;28;20067;-62
2022/09/14 05:54:53;;;;;;;22.20;17.23;;;;;;;19.00;80.55;99554.13;4176385;28;20048;-62
2022/09/14 05:56:56;;;;;;;16.50;11.50;;;;;;;18.95;81.01;99547.31;4175107;28;20489;-62
2022/09/14 05:58:59;;;;;;;19.52;13.55;;;;;;;18.91;81.06;99540.41;4178282;28;20136;-63
2022/09/14 06:01:07;;;;;;;18.60;13.45;;;;;;;18.93;81.01;99535.97;4180560;28;20094;-63
2022/09/14 06:03:10;;;;;;;14.82;11.18;;;;;;;18.90;81.30;99541.34;4172162;28;20040;-63
2022/09/14 06:05:14;;;;;;;19.75;13.38;;;;;;;18.87;81.96;99547.56;4177865;28;20037;-63
2022/09/14 06:07:17;;;;;;;15.38;10.50;;;;;;;18.86;82.17;99550.22;4180756;28;20045;-63
2022/09/14 06:09:21;;;;;;;15.50;10.43;;;;;;;18.85;81.67;99557.25;4173835;28;20029;-63
2022/09/14 06:11:27;;;;;;;13.90;10.70;;;;;;;18.84;82.17;99552.91;4178226;28;20486;-63
2022/09/14 06:13:30;;;;;;;19.77;13.38;;;;;;;18.86;82.04;99558.13;4180424;28;20044;-63
2022/09/14 06:15:33;;;;;;;19.95;14.63;;;;;;;18.86;82.25;99556.38;4180084;28;20479;-63
2022/09/14 06:17:36;;;;;;;16.73;12.45;;;;;;;18.92;81.60;99556.16;4180924;28;20045;-62
2022/09/14 06:19:39;;;;;;;17.80;11.82;;;;;;;18.98;81.64;99553.34;4180827;28;20041;-63
2022/09/14 06:21:43;;;;;;;12.50;9.10;;;;;;;18.93;81.26;99560.53;4179351;28;20047;-63
2022/09/14 06:23:47;;;;;;;11.88;8.38;;;;;;;18.88;81.94;99572.13;4179984;28;20051;-63
2022/09/14 06:25:52;;;;;;;;;;;;;;;18.68;82.57;99576.28;4168905;28;20139;-63
2022/09/14 06:27:55;;;;;;;12.82;9.88;;;;;;;18.71;82.34;99572.69;4180228;28;19929;-63
2022/09/14 06:29:58;;;;;;;10.88;7.97;;;;;;;18.76;82.75;99571.63;4174339;28;20037;-63
2022/09/14 06:32:01;;;;;;;11.13;8.48;;;;;;;18.82;82.12;99570.53;4177713;28;20091;-63
2022/09/14 06:34:06;;;;;;;14.35;10.15;;;;;;;18.85;82.17;99580.94;4165693;28;20037;-63
2022/09/14 06:36:13;;;;;;;13.05;9.20;;;;;;;18.85;82.25;99580.94;4163283;28;20125;-63
2022/09/14 06:38:21;;;;;;;12.77;9.23;;;;;;;18.90;82.18;99579.06;4162990;28;20038;-63
2022/09/14 06:40:26;;;;;;;10.80;8.18;;;;;;;18.95;81.60;99566.63;4169473;28;20037;-63
2022/09/14 06:42:33;;;;;;;8.05;6.47;;;;;;;18.96;81.32;99563.03;4170780;28;20069;-63
2022/09/14 06:44:39;;;;;;;11.50;7.85;;;;;;;18.96;81.53;99557.78;4172768;28;20048;-63
2022/09/14 06:46:44;;;;;;;11.73;8.05;;;;;;;18.97;81.57;99562.16;4178319;28;20033;-63
2022/09/14 06:48:54;;;;;;;11.38;7.30;;;;;;;18.99;81.79;99562.94;4162536;28;20037;-63
2022/09/14 06:50:57;;;;;;;11.57;9.30;;;;;;;19.01;81.16;99566.41;4176246;28;20041;-63
2022/09/14 06:53:00;;;;;;;13.88;8.73;;;;;;;19.04;81.35;99564.56;4180374;28;20529;-63
2022/09/14 06:55:05;;;;;;;9.05;6.97;;;;;;;19.03;80.87;99566.34;4170730;28;20041;-63
2022/09/14 06:57:08;;;;;;;8.32;7.10;;;;;;;19.00;80.93;99563.81;4178303;28;20071;-63
2022/09/14 06:59:12;;;;;;;11.80;9.52;;;;;;;19.06;80.99;99558.31;4173789;28;20045;-63
2022/09/14 07:01:18;;;;;;;10.80;9.40;;;;;;;19.11;80.48;99559.00;4154027;28;20049;-63
2022/09/14 07:03:21;;;;;;;10.35;7.80;;;;;;;19.10;80.00;99557.31;4176129;28;20163;-63
2022/09/14 07:05:24;;;;;;;12.02;9.27;;;;;;;19.09;80.24;99552.09;4178416;28;20516;-63
2022/09/14 07:07:27;;;;;;;10.15;7.75;;;;;;;19.08;80.47;99545.94;4169364;28;20044;-63
2022/09/14 07:09:30;;;;;;;18.60;10.45;;;;;;;19.25;80.28;99533.97;4172616;28;20041;-63
2022/09/14 07:11:35;;;;;;;8.63;6.45;;;;;;;19.11;80.22;99545.84;4169985;28;20080;-63
2022/09/14 07:13:37;;;;;;;;;;;;;;;18.78;81.01;99567.16;4177040;28;20037;-63
2022/09/14 07:15:48;;;;;;;11.73;6.75;;;;;;;18.86;81.71;99563.41;4178859;28;19952;-63
2022/09/14 07:17:51;;;;;;;14.82;9.02;;;;;;;18.97;81.32;99569.19;4173742;28;20053;-63
2022/09/14 07:19:53;;;;;;;11.82;7.85;;;;;;;19.14;80.40;99561.56;4178388;28;20033;-63
2022/09/14 07:21:56;;;;;;;8.63;6.53;;;;;;;19.13;81.04;99564.25;4177604;28;20133;-63
2022/09/14 07:24:00;;;;;;;10.48;7.50;;;;;;;19.13;80.75;99559.81;4167386;28;20457;-63
2022/09/14 07:26:05;;;;;;;15.90;9.10;;;;;;;19.17;80.87;99557.94;4172438;28;20059;-63
2022/09/14 07:28:09;;;;;;;10.43;8.68;;;;;;;19.16;80.88;99559.72;4178917;28;20101;-64
2022/09/14 07:30:12;;;;;;;18.77;11.43;;;;;;;19.25;80.43;99560.31;4167832;28;20052;-63
2022/09/14 07:32:15;;;;;;;9.60;7.03;;;;;;;19.20;80.24;99547.28;4177828;28;20044;-63
2022/09/14 07:34:18;;;;;;;15.77;9.15;;;;;;;19.09;81.79;99560.84;4175575;28;20037;-63
2022/09/14 07:36:22;;;;;;;15.38;10.35;;;;;;;19.05;82.07;99568.91;4178850;28;20041;-65
2022/09/14 07:38:25;;;;;;;10.80;8.27;;;;;;;19.06;81.65;99565.38;4174523;28;20040;-63
2022/09/14 07:40:48;;;;;;;20.40;10.57;;;;;;;19.17;82.08;99573.75;4182672;28;20361;-63
2022/09/14 07:42:51;;;;;;;10.90;8.20;;;;;;;19.12;81.64;99578.31;4170095;28;20495;-63
2022/09/14 07:45:00;;;;;;;15.18;10.95;;;;;;;19.12;82.05;99568.63;4181261;28;20524;-63
2022/09/14 07:47:03;;;;;;;11.75;9.57;;;;;;;19.15;81.70;99563.25;4167918;28;20422;-63
2022/09/14 07:49:08;;;;;;;11.98;9.77;;;;;;;19.26;80.82;99557.63;4180121;28;20102;-63
2022/09/14 07:51:11;;;;;;;12.85;9.90;;;;;;;19.11;81.71;99572.19;4175872;28;20049;-63
2022/09/14 07:53:14;;;;;;;16.58;11.23;;;;;;;19.11;82.03;99574.81;4180158;28;20037;-63
2022/09/14 07:55:18;;;;;;;13.68;10.52;;;;;;;19.18;82.00;99584.22;4167403;28;20029;-63
2022/09/14 07:57:20;;;;;;;12.77;8.70;;;;;;;19.25;81.81;99589.31;4171291;28;20055;-63
2022/09/14 07:59:43;;;;;;;13.75;10.40;;;;;;;19.30;81.65;99597.88;4172522;28;20075;-63
2022/09/14 08:01:48;;;;;;;16.88;10.48;;;;;;;19.36;81.18;99597.66;4173773;28;20033;-63
2022/09/14 08:03:52;;;;;;;15.63;11.07;;;;;;;19.39;81.30;99597.56;4174315;28;20127;-63
2022/09/14 08:06:00;;;;;;;12.27;9.10;;;;;;;19.50;81.03;99591.91;4177616;28;20033;-63
2022/09/14 08:08:03;;;;;;;13.77;10.13;;;;;;;19.41;81.48;99593.09;4171691;28;20037;-63
2022/09/14 08:10:07;;;;;;;11.98;9.32;;;;;;;19.43;81.30;99599.16;4175430;28;20131;-63
2022/09/14 08:12:10;;;;;;;14.73;10.70;;;;;;;19.32;81.64;99598.72;4180765;28;20040;-63
2022/09/14 08:14:14;;;;;;;12.70;9.48;;;;;;;19.32;81.87;99602.19;4175536;28;20123;-63
2022/09/14 08:16:18;;;;;;;12.23;9.88;;;;;;;19.34;81.98;99600.34;4173637;28;20060;-63
2022/09/14 08:18:22;;;;;;;13.60;10.90;;;;;;;19.43;81.90;99609.69;4181252;28;20465;-62
2022/09/14 08:20:24;;;;;;;12.75;10.30;;;;;;;19.48;81.89;99610.41;4179350;28;20313;-63
2022/09/14 08:22:27;;;;;;;14.32;10.10;;;;;;;19.52;81.58;99604.13;4182698;28;20080;-63
2022/09/14 08:24:31;;;;;;;12.40;8.70;;;;;;;19.58;81.45;99617.97;4177805;28;20152;-63
2022/09/14 08:26:36;;;;;;;16.58;10.27;;;;;;;19.60;81.14;99624.06;4179914;28;20486;-63
2022/09/14 08:28:39;;;;;;;13.05;8.63;;;;;;;19.57;80.99;99626.81;4175880;28;20124;-65
2022/09/14 08:30:42;;;;;;;13.85;10.25;;;;;;;19.57;81.48;99629.47;4180770;28;20492;-63
2022/09/14 08:32:45;;;;;;;9.73;7.45;;;;;;;19.54;81.34;99635.69;4177539;28;20041;-63
2022/09/14 08:34:51;;;;;;;9.82;7.93;;;;;;;19.44;81.36;99634.31;4174356;28;20061;-64
2022/09/14 08:36:54;;;;;;;11.95;8.70;;;;;;;19.40;81.83;99630.06;4179263;28;20161;-63
2022/09/14 08:38:57;;;;;;;10.82;7.22;;;;;;;19.48;81.09;99626.22;4173721;28;20037;-63
2022/09/14 08:41:10;;;;;;;12.00;9.32;;;;;;;19.50;81.03;99642.84;4176047;28;20132;-64
2022/09/14 08:43:14;;;;;;;10.75;8.15;;;;;;;19.50;81.26;99648.09;4179826;28;20045;-63
2022/09/14 08:45:17;;;;;;;12.35;8.88;;;;;;;19.48;81.53;99644.69;4182556;28;20041;-63
2022/09/14 08:47:26;;;;;;;13.43;9.65;;;;;;;19.51;81.32;99649.84;4173450;28;20049;-64
2022/09/14 08:49:46;;;;;;;12.82;9.95;;;;;;;19.59;81.15;99646.06;4174336;28;20056;-63
2022/09/14 08:51:51;;;;;;;11.65;8.40;;;;;;;19.58;81.49;99650.50;4169929;28;20052;-64
2022/09/14 08:53:58;;;;;;;10.93;8.63;;;;;;;19.61;81.07;99638.94;4178080;28;20120;-63
2022/09/14 08:56:06;;;;;;;12.70;9.15;;;;;;;19.64;80.77;99644.09;4181544;28;20497;-64
2022/09/14 08:58:19;;;;;;;12.15;9.18;;;;;;;19.58;81.32;99637.31;4179026;28;20084;-64
2022/09/14 09:00:25;;;;;;;14.45;10.60;;;;;;;19.57;81.51;99642.63;4175385;28;20090;-63
2022/09/14 09:02:47;;;;;;;9.65;7.30;;;;;;;19.63;81.04;99637.13;4179701;28;20044;-64
2022/09/14 09:04:55;;;;;;;17.58;10.48;;;;;;;19.77;80.84;99642.78;4171585;28;20131;-64
2022/09/14 09:07:07;;;;;;;13.70;9.43;;;;;;;19.83;81.21;99645.22;4171527;28;20037;-64
2022/09/14 09:09:21;;;;;;;11.90;8.20;;;;;;;19.82;81.32;99650.53;4180742;28;20541;-63
2022/09/14 09:11:32;;;;;;;10.05;7.40;;;;;;;19.73;81.60;99648.19;4178614;28;20402;-63
2022/09/14 09:13:37;;;;;;;8.85;6.70;;;;;;;19.77;81.24;99655.06;4181352;28;20106;-63
2022/09/14 09:15:48;;;;;;;12.85;9.52;;;;;;;19.77;81.56;99648.03;4169182;28;20042;-63
2022/09/14 09:17:55;;;;;;;14.98;10.70;;;;;;;19.74;81.48;99645.50;4174180;28;20122;-63
2022/09/14 09:20:04;;;;;;;12.30;7.40;;;;;;;19.76;80.92;99656.03;4174310;28;20060;-63
2022/09/14 09:22:17;;;;;;;11.15;8.80;;;;;;;19.78;80.50;99651.53;4180409;28;20513;-63
2022/09/14 09:24:27;;;;;;;10.73;8.30;;;;;;;19.80;80.94;99644.44;4179447;28;20122;-63
2022/09/14 09:26:32;;;;;;;13.75;9.63;;;;;;;19.93;79.91;99636.94;4181712;28;20047;-63
2022/09/14 09:28:47;;;;;;;10.32;8.27;;;;;;;19.97;79.61;99638.56;4175995;28;20040;-63
2022/09/14 09:30:50;;;;;;;13.13;8.75;;;;;;;20.02;79.31;99636.59;4172639;28;20041;-63
2022/09/14 09:32:53;;;;;;;11.25;8.48;;;;;;;20.10;78.36;99623.97;4178497;28;20041;-63
2022/09/14 09:35:22;;;;;;;16.15;10.38;;;;;;;20.18;78.54;99624.53;4156795;28;20063;-64
2022/09/14 09:37:37;;;;;;;13.68;8.63;;;;;;;20.16;79.01;99631.63;4180101;28;20137;-63
2022/09/14 09:39:44;;;;;;;12.40;8.18;;;;;;;20.26;78.42;99618.09;4177254;28;20063;-63
2022/09/14 09:41:50;;;;;;;10.82;8.30;;;;;;;20.33;79.12;99609.03;4146493;28;20141;-63